Airport View

Enter AWOS ICAO identifier for current METAR.

ex. KFNL

KOCF 262251Z 02004KT 10SM FEW110 16/03 A3006 RMK AO2 SLP180 T01610033 $

26 Jan 2020 23:26

Frequency: 128.125

Phone: 352-237-8525

Other Area AWOS: KX60 - KVVG - KINF - KCGC

TAF KLEE 261721Z 2618/2718 33005KT P6SM SCT250 FM270000 VRB03KT P6SM BKN150 FM270300 VRB03KT P6SM OVC080